createdAt,value
2023-01-13T00:00:34.431Z,98730.22
2023-01-13T00:03:02.526Z,98720.59
2023-01-13T00:05:30.622Z,98711.88
2023-01-13T00:07:58.640Z,98722.31
2023-01-13T00:10:26.803Z,98710.69
2023-01-13T00:12:54.857Z,98707.66
2023-01-13T00:15:24.347Z,98703.31
2023-01-13T00:17:52.435Z,98695.22
2023-01-13T00:20:20.746Z,98712.50
2023-01-13T00:22:48.844Z,98699.22
2023-01-13T00:25:16.959Z,98704.88
2023-01-13T00:27:45.023Z,98647.75
2023-01-13T00:30:14.075Z,98683.84
2023-01-13T00:32:44.599Z,98686.97
2023-01-13T00:35:12.740Z,98680.09
2023-01-13T00:37:45.378Z,98676.59
2023-01-13T00:40:14.298Z,98677.09
2023-01-13T00:43:05.031Z,98684.81
2023-01-13T00:45:36.076Z,98692.31
2023-01-13T00:48:05.596Z,98687.50
2023-01-13T00:50:34.636Z,98689.78
2023-01-13T00:53:03.049Z,98688.06
2023-01-13T00:55:33.805Z,98696.34
2023-01-13T00:58:03.825Z,98682.78
2023-01-13T01:00:32.107Z,98670.09
2023-01-13T01:03:00.278Z,98689.31
2023-01-13T01:05:29.908Z,98702.34
2023-01-13T01:07:57.931Z,98692.31
2023-01-13T01:10:26.111Z,98687.81
2023-01-13T01:12:54.342Z,98685.31
2023-01-13T01:15:22.482Z,98691.38
2023-01-13T01:17:50.557Z,98695.56
2023-01-13T01:20:18.820Z,98676.34
2023-01-13T01:22:48.279Z,98681.31
2023-01-13T01:25:16.476Z,98669.38
2023-01-13T01:27:44.493Z,98655.09
2023-01-13T01:30:13.791Z,98665.50
2023-01-13T01:32:41.878Z,98679.63
2023-01-13T01:35:10.429Z,98669.00
2023-01-13T01:37:38.594Z,98676.13
2023-01-13T01:40:09.091Z,98655.72
2023-01-13T01:42:54.745Z,98670.19
2023-01-13T01:45:25.635Z,98665.25
2023-01-13T01:47:58.038Z,98673.34
2023-01-13T01:50:27.275Z,98667.81
2023-01-13T01:52:59.437Z,98664.16
2023-01-13T01:55:37.226Z,98656.69
2023-01-13T01:58:10.839Z,98680.00
2023-01-13T02:00:39.488Z,98680.34
2023-01-13T02:03:09.643Z,98622.63
2023-01-13T02:05:39.129Z,98669.97
2023-01-13T02:08:10.057Z,98637.38
2023-01-13T02:10:40.928Z,98641.34
2023-01-13T02:13:12.405Z,98655.13
2023-01-13T02:15:50.297Z,98630.59
2023-01-13T02:18:31.220Z,98650.19
2023-01-13T02:21:29.139Z,98631.22
2023-01-13T02:25:02.593Z,98646.06
2023-01-13T02:27:59.446Z,98639.19
2023-01-13T02:31:01.170Z,98633.16
2023-01-13T02:33:52.481Z,98637.59
2023-01-13T02:36:31.318Z,98643.88
2023-01-13T02:39:05.798Z,98642.44
2023-01-13T02:41:58.843Z,98653.91
2023-01-13T02:44:31.263Z,98645.44
2023-01-13T02:47:06.050Z,98640.97
2023-01-13T02:49:38.895Z,98647.38
2023-01-13T02:52:12.897Z,98630.50
2023-01-13T02:54:46.305Z,98643.78
2023-01-13T02:57:18.672Z,98631.06
2023-01-13T02:59:46.669Z,98620.94
2023-01-13T03:02:20.142Z,98590.16
2023-01-13T03:04:52.061Z,98616.72
2023-01-13T03:07:46.613Z,98606.56
2023-01-13T03:10:27.414Z,98620.31
2023-01-13T03:13:02.498Z,98610.19
2023-01-13T03:15:40.464Z,98614.06
2023-01-13T03:18:22.562Z,98612.72
2023-01-13T03:20:59.119Z,98614.88
2023-01-13T03:23:34.054Z,98619.38
2023-01-13T03:26:09.687Z,98614.03
2023-01-13T03:28:42.390Z,98619.09
2023-01-13T03:31:15.494Z,98585.31
2023-01-13T03:33:49.633Z,98611.16
2023-01-13T03:36:23.868Z,98609.13
2023-01-13T03:38:55.850Z,98598.13
2023-01-13T03:41:28.832Z,98590.38
2023-01-13T03:44:25.091Z,98589.06
2023-01-13T03:47:01.553Z,98576.88
2023-01-13T03:49:37.316Z,98586.16
2023-01-13T03:52:08.858Z,98587.00
2023-01-13T03:54:45.692Z,98574.97
2023-01-13T03:57:17.032Z,98552.38
2023-01-13T03:59:48.932Z,98589.91
2023-01-13T04:02:23.193Z,98584.00
2023-01-13T04:04:59.705Z,98568.06
2023-01-13T04:07:38.281Z,98572.53
2023-01-13T04:10:08.972Z,98581.81
2023-01-13T04:12:59.109Z,98574.13
2023-01-13T04:15:29.105Z,98572.50
2023-01-13T04:18:04.087Z,98572.03
2023-01-13T04:20:33.439Z,98573.38
2023-01-13T04:23:01.430Z,98579.16
2023-01-13T04:25:29.425Z,98579.88
2023-01-13T04:27:57.432Z,98583.47
2023-01-13T04:30:26.215Z,98576.97
2023-01-13T04:32:54.196Z,98583.25
2023-01-13T04:35:22.364Z,98583.97
2023-01-13T04:37:51.815Z,98583.47
2023-01-13T04:40:19.815Z,98575.84
2023-01-13T04:42:47.807Z,98578.16
2023-01-13T04:45:16.098Z,98583.13
2023-01-13T04:47:44.039Z,98574.63
2023-01-13T04:50:13.078Z,98592.25
2023-01-13T04:52:41.127Z,98579.09
2023-01-13T04:55:11.746Z,98588.53
2023-01-13T04:57:39.757Z,98590.56
2023-01-13T05:00:09.939Z,98588.66
2023-01-13T05:02:37.958Z,98594.22
2023-01-13T05:05:07.040Z,98586.47
2023-01-13T05:07:35.110Z,98582.03
2023-01-13T05:10:03.157Z,98563.31
2023-01-13T05:12:50.103Z,98570.91
2023-01-13T05:15:35.709Z,98578.78
2023-01-13T05:18:04.111Z,98562.09
2023-01-13T05:20:32.286Z,98586.59
2023-01-13T05:23:14.064Z,98594.22
2023-01-13T05:25:44.579Z,98582.13
2023-01-13T05:28:14.045Z,98579.59
2023-01-13T05:30:43.598Z,98593.94
2023-01-13T05:33:12.303Z,98577.03
2023-01-13T05:35:40.379Z,98596.94
2023-01-13T05:38:08.326Z,98590.78
2023-01-13T05:40:53.691Z,98565.22
2023-01-13T05:43:24.815Z,98591.63
2023-01-13T05:45:57.349Z,98580.19
2023-01-13T05:48:28.468Z,98583.47
2023-01-13T05:50:56.827Z,98568.50
2023-01-13T05:53:25.479Z,98569.50
2023-01-13T05:55:53.883Z,98575.84
2023-01-13T05:58:26.282Z,98580.47
2023-01-13T06:00:54.785Z,98560.53
2023-01-13T06:03:23.714Z,98580.56
2023-01-13T06:05:58.532Z,98548.47
2023-01-13T06:08:27.042Z,98578.78
2023-01-13T06:10:55.083Z,98570.56
2023-01-13T06:13:25.425Z,98565.25
2023-01-13T06:15:56.685Z,98563.22
2023-01-13T06:18:24.955Z,98551.16
2023-01-13T06:20:52.961Z,98555.00
2023-01-13T06:23:21.153Z,98568.53
2023-01-13T06:25:54.537Z,98570.34
2023-01-13T06:28:22.487Z,98570.34
2023-01-13T06:30:55.690Z,98577.56
2023-01-13T06:33:30.618Z,98570.06
2023-01-13T06:36:05.455Z,98576.09
2023-01-13T06:38:38.698Z,98578.28
2023-01-13T06:41:09.259Z,98564.19
2023-01-13T06:43:36.538Z,98582.63
2023-01-13T06:46:06.365Z,98586.59
2023-01-13T06:48:35.935Z,98581.91
2023-01-13T06:51:04.384Z,98592.84
2023-01-13T06:53:33.073Z,98570.22
2023-01-13T06:56:00.995Z,98564.91
2023-01-13T06:58:28.966Z,98561.41
2023-01-13T07:01:01.502Z,98572.25
2023-01-13T07:03:30.897Z,98577.31
2023-01-13T07:05:58.840Z,98569.34
2023-01-13T07:08:26.735Z,98580.91
2023-01-13T07:10:55.403Z,98566.94
2023-01-13T07:13:40.685Z,98561.16
2023-01-13T07:16:10.155Z,98585.31
2023-01-13T07:18:39.615Z,98584.34
2023-01-13T07:21:09.207Z,98585.09
2023-01-13T07:23:39.558Z,98590.41
2023-01-13T07:26:08.810Z,98583.13
2023-01-13T07:28:37.106Z,98599.94
2023-01-13T07:31:05.894Z,98615.13
2023-01-13T07:33:34.039Z,98623.47
2023-01-13T07:36:06.094Z,98555.47
2023-01-13T07:38:35.315Z,98605.97
2023-01-13T07:41:24.027Z,98575.88
2023-01-13T07:43:51.996Z,98599.19
2023-01-13T07:46:20.486Z,98599.66
2023-01-13T07:48:50.000Z,98613.56
2023-01-13T07:51:19.401Z,98598.19
2023-01-13T07:53:47.388Z,98598.31
2023-01-13T07:56:15.396Z,98600.59
2023-01-13T07:58:43.340Z,98597.28
2023-01-13T08:01:12.495Z,98591.50
2023-01-13T08:03:41.269Z,98606.09
2023-01-13T08:06:09.939Z,98624.78
2023-01-13T08:08:39.443Z,98617.03
2023-01-13T08:11:08.912Z,98623.22
2023-01-13T08:13:37.309Z,98631.78
2023-01-13T08:16:07.581Z,98639.72
2023-01-13T08:18:36.711Z,98637.16
2023-01-13T08:21:07.945Z,98630.28
2023-01-13T08:23:36.710Z,98634.19
2023-01-13T08:26:07.754Z,98636.81
2023-01-13T08:28:35.963Z,98652.75
2023-01-13T08:31:06.554Z,98659.97
2023-01-13T08:33:35.832Z,98652.94
2023-01-13T08:36:06.320Z,98658.38
2023-01-13T08:38:35.504Z,98679.03
2023-01-13T08:41:09.610Z,98685.91
2023-01-13T08:43:37.538Z,98676.75
2023-01-13T08:46:05.703Z,98688.91
2023-01-13T08:48:33.791Z,98690.69
2023-01-13T08:51:06.040Z,98694.44
2023-01-13T08:53:34.063Z,98704.13
2023-01-13T08:56:02.042Z,98711.00
2023-01-13T08:58:31.389Z,98722.59
2023-01-13T09:01:06.186Z,98702.31
2023-01-13T09:03:34.245Z,98708.22
2023-01-13T09:06:02.199Z,98714.50
2023-01-13T09:08:30.134Z,98712.28
2023-01-13T09:10:59.085Z,98718.97
2023-01-13T09:13:26.418Z,98732.09
2023-01-13T09:15:57.032Z,98743.97
2023-01-13T09:18:25.467Z,98735.28
2023-01-13T09:20:53.695Z,98741.31
2023-01-13T09:23:21.593Z,98731.31
2023-01-13T09:25:50.383Z,98734.69
2023-01-13T09:28:18.302Z,98746.66
2023-01-13T09:30:46.312Z,98744.13
2023-01-13T09:33:33.573Z,98745.84
2023-01-13T09:36:01.952Z,98753.69
2023-01-13T09:38:29.924Z,98754.78
2023-01-13T09:40:57.965Z,98758.72
2023-01-13T09:43:47.893Z,98754.88
2023-01-13T09:46:33.245Z,98759.97
2023-01-13T09:49:03.900Z,98757.78
2023-01-13T09:51:37.157Z,98760.56
2023-01-13T09:54:12.396Z,98762.47
2023-01-13T09:56:40.349Z,98752.53
2023-01-13T09:59:11.637Z,98766.34
2023-01-13T10:01:47.657Z,98755.00
2023-01-13T10:04:17.409Z,98774.66
2023-01-13T10:06:50.967Z,98758.47
2023-01-13T10:09:23.994Z,98742.75
2023-01-13T10:12:10.811Z,98748.75
2023-01-13T10:14:43.357Z,98756.63
2023-01-13T10:17:20.002Z,98768.47
2023-01-13T10:19:53.878Z,98773.31
2023-01-13T10:22:40.098Z,98781.00
2023-01-13T10:25:22.821Z,98775.56
2023-01-13T10:27:52.506Z,98785.00
2023-01-13T10:30:23.527Z,98777.19
2023-01-13T10:32:55.933Z,98781.66
2023-01-13T10:36:03.790Z,98777.41
2023-01-13T10:38:40.827Z,98787.78
2023-01-13T10:41:19.920Z,98789.44
2023-01-13T10:44:00.323Z,98794.47
2023-01-13T10:46:29.481Z,98797.16
2023-01-13T10:48:59.099Z,98813.25
2023-01-13T10:51:28.796Z,98789.34
2023-01-13T10:54:01.626Z,98822.97
2023-01-13T10:56:32.401Z,98816.09
2023-01-13T10:59:18.994Z,98812.81
2023-01-13T11:02:00.996Z,98815.22
2023-01-13T11:04:32.912Z,98804.34
2023-01-13T11:07:01.651Z,98805.19
2023-01-13T11:09:32.508Z,98814.47
2023-01-13T11:12:03.016Z,98823.66
2023-01-13T11:14:39.574Z,98820.78
2023-01-13T11:17:21.799Z,98809.69
2023-01-13T11:19:55.361Z,98802.19
2023-01-13T11:22:29.133Z,98802.41
2023-01-13T11:25:02.573Z,98805.28
2023-01-13T11:27:43.768Z,98814.91
2023-01-13T11:30:22.234Z,98817.97
2023-01-13T11:33:03.331Z,98801.75
2023-01-13T11:35:33.156Z,98815.66
2023-01-13T11:38:08.197Z,98823.13
2023-01-13T11:40:42.531Z,98836.13
2023-01-13T11:43:18.063Z,98837.94
2023-01-13T11:45:50.004Z,98829.22
2023-01-13T11:48:22.317Z,98837.84
2023-01-13T11:50:55.898Z,98823.81
2023-01-13T11:53:39.226Z,98831.25
2023-01-13T11:56:27.064Z,98839.50
2023-01-13T11:59:18.632Z,98838.03
2023-01-13T12:02:13.501Z,98845.25
2023-01-13T12:04:51.129Z,98852.06
2023-01-13T12:07:23.359Z,98843.13
2023-01-13T12:10:03.463Z,98830.81
2023-01-13T12:12:50.141Z,98835.19
2023-01-13T12:15:37.102Z,98830.06
2023-01-13T12:18:21.310Z,98836.56
2023-01-13T12:20:58.613Z,98823.53
2023-01-13T12:23:33.091Z,98802.28
2023-01-13T12:26:07.234Z,98830.13
2023-01-13T12:28:44.750Z,98826.28
2023-01-13T12:31:14.494Z,98831.84
2023-01-13T12:33:53.077Z,98839.91
2023-01-13T12:36:30.728Z,98813.94
2023-01-13T12:39:06.627Z,98813.03
2023-01-13T12:42:03.530Z,98811.00
2023-01-13T12:44:32.080Z,98817.94
2023-01-13T12:47:01.079Z,98799.69
2023-01-13T12:49:33.475Z,98791.13
2023-01-13T12:52:18.751Z,98812.63
2023-01-13T12:55:11.166Z,98810.88
2023-01-13T12:57:40.420Z,98805.13
2023-01-13T13:00:17.735Z,98812.56
2023-01-13T13:03:29.752Z,98821.22
2023-01-13T13:06:17.256Z,98811.81
2023-01-13T13:08:58.414Z,98816.16
2023-01-13T13:11:56.287Z,98805.13
2023-01-13T13:15:03.875Z,98819.78
2023-01-13T13:18:01.339Z,98847.72
2023-01-13T13:20:55.878Z,98827.94
2023-01-13T13:23:40.245Z,98812.34
2023-01-13T13:26:20.344Z,98847.22
2023-01-13T13:29:00.977Z,98849.31
2023-01-13T13:31:41.455Z,98841.34
2023-01-13T13:34:21.668Z,98842.31
2023-01-13T13:37:06.997Z,98861.59
2023-01-13T13:39:52.800Z,98866.88
2023-01-13T13:42:41.652Z,98875.50
2023-01-13T13:45:34.887Z,98876.06
2023-01-13T13:48:20.756Z,98866.41
2023-01-13T13:50:50.976Z,98869.81
2023-01-13T13:53:20.949Z,98845.72
2023-01-13T13:55:57.444Z,98848.69
2023-01-13T13:58:27.052Z,98861.06
2023-01-13T14:00:55.964Z,98871.50
2023-01-13T14:03:26.813Z,98887.34
2023-01-13T14:05:59.482Z,98889.06
2023-01-13T14:08:29.822Z,98900.59
2023-01-13T14:10:57.997Z,98912.59
2023-01-13T14:13:27.538Z,98923.19
2023-01-13T14:15:58.105Z,98931.88
2023-01-13T14:18:27.215Z,98926.38
2023-01-13T14:21:00.145Z,98915.53
2023-01-13T14:23:30.824Z,98929.22
2023-01-13T14:26:03.693Z,98923.81
2023-01-13T14:28:35.428Z,98924.03
2023-01-13T14:31:03.872Z,98934.31
2023-01-13T14:33:38.906Z,98940.44
2023-01-13T14:36:15.018Z,98929.53
2023-01-13T14:38:44.307Z,98935.56
2023-01-13T14:41:35.639Z,98945.03
2023-01-13T14:44:11.274Z,98923.91
2023-01-13T15:23:07.865Z,98990.22
2023-01-13T16:41:54.547Z,99084.66
2023-01-13T16:44:22.702Z,99080.13
2023-01-13T16:46:50.638Z,99089.94
2023-01-13T16:49:18.913Z,99094.00
2023-01-13T16:51:47.110Z,99090.56
2023-01-13T16:54:15.255Z,99100.59
2023-01-13T16:56:43.543Z,99083.31
2023-01-13T16:59:15.436Z,99106.47
2023-01-13T17:01:45.232Z,99086.81
2023-01-13T17:04:17.740Z,99121.97
2023-01-13T17:06:52.557Z,99128.41
2023-01-13T17:09:37.731Z,99127.75
2023-01-13T17:12:06.280Z,99090.28
2023-01-13T17:14:48.617Z,99084.78
2023-01-13T17:17:23.238Z,99081.81
2023-01-13T17:19:53.184Z,99111.34
2023-01-13T17:22:22.079Z,99054.13
2023-01-13T17:24:50.261Z,99128.34
2023-01-13T17:27:21.367Z,99151.31
2023-01-13T17:29:51.093Z,99089.78
2023-01-13T17:32:20.008Z,99090.19
2023-01-13T17:34:48.742Z,99195.22
2023-01-13T17:37:17.375Z,99152.47
2023-01-13T17:39:48.403Z,99113.44
2023-01-13T17:42:16.996Z,99190.16
2023-01-13T17:44:45.401Z,99176.09
2023-01-13T17:47:15.214Z,99130.00
2023-01-13T17:49:43.413Z,99140.91
2023-01-13T17:52:11.589Z,99170.91
2023-01-13T17:54:43.250Z,99247.41
2023-01-13T17:57:11.166Z,99234.31
2023-01-13T17:59:41.439Z,99241.28
2023-01-13T18:02:12.564Z,99239.53
2023-01-13T18:04:42.154Z,99243.59
2023-01-13T18:07:10.063Z,99241.16
2023-01-13T18:09:38.411Z,99239.84
2023-01-13T18:12:06.758Z,99248.63
2023-01-13T18:14:35.639Z,99241.91
2023-01-13T18:17:03.796Z,99255.78
2023-01-13T18:19:49.507Z,99261.91
2023-01-13T18:22:36.165Z,99256.75
2023-01-13T18:25:22.156Z,99268.75
2023-01-13T18:27:52.906Z,99260.66
2023-01-13T18:30:20.988Z,99273.69
2023-01-13T18:32:49.124Z,99250.84
2023-01-13T18:35:17.169Z,99277.59
2023-01-13T18:37:46.829Z,99273.91
2023-01-13T18:40:15.350Z,99269.59
2023-01-13T18:42:52.485Z,99283.78
2023-01-13T18:45:21.724Z,99268.53
2023-01-13T18:47:49.739Z,99274.66
2023-01-13T18:50:18.885Z,99277.47
2023-01-13T18:52:48.200Z,99284.28
2023-01-13T18:55:16.308Z,99297.09
2023-01-13T18:57:44.206Z,99310.31
2023-01-13T19:00:14.409Z,99294.06
2023-01-13T19:02:42.306Z,99304.09
2023-01-13T19:05:12.323Z,99312.84
2023-01-13T19:07:40.427Z,99313.81
2023-01-13T19:10:13.001Z,99330.97
2023-01-13T19:12:42.320Z,99328.56
2023-01-13T19:15:11.691Z,99335.69
2023-01-13T19:17:39.708Z,99327.91
2023-01-13T19:20:08.747Z,99333.06
2023-01-13T19:22:37.028Z,99343.44
2023-01-13T19:25:06.538Z,99347.94
2023-01-13T19:27:35.886Z,99352.94
2023-01-13T19:30:04.192Z,99358.59
2023-01-13T19:32:34.199Z,99376.41
2023-01-13T19:35:02.148Z,99367.81
2023-01-13T19:37:31.556Z,99359.88
2023-01-13T19:40:00.044Z,99347.97
2023-01-13T19:42:46.278Z,99353.75
2023-01-13T19:45:30.895Z,99369.69
2023-01-13T19:48:01.880Z,99363.56
2023-01-13T19:50:30.133Z,99360.06
2023-01-13T19:52:58.214Z,99361.63
2023-01-13T19:55:28.534Z,99361.47
2023-01-13T19:57:58.175Z,99384.84
2023-01-13T20:00:28.087Z,99369.69
2023-01-13T20:03:00.733Z,99381.81
2023-01-13T20:05:32.630Z,99387.88
2023-01-13T20:08:00.810Z,99392.94
2023-01-13T20:10:30.568Z,99371.88
2023-01-13T20:12:58.449Z,99385.44
2023-01-13T20:15:27.799Z,99380.75
2023-01-13T20:17:55.739Z,99377.28
2023-01-13T20:20:24.315Z,99387.19
2023-01-13T20:22:52.319Z,99388.38
2023-01-13T20:25:21.285Z,99392.22
2023-01-13T20:27:49.756Z,99395.59
2023-01-13T20:30:18.022Z,99403.34
2023-01-13T20:32:51.100Z,99399.84
2023-01-13T20:35:19.305Z,99400.28
2023-01-13T20:37:47.983Z,99384.63
2023-01-13T20:40:17.950Z,99393.31
2023-01-13T20:42:45.468Z,99388.88
2023-01-13T20:45:17.787Z,99396.88
2023-01-13T20:47:47.646Z,99385.63
2023-01-13T20:50:16.485Z,99395.25
2023-01-13T20:52:45.398Z,99378.25
2023-01-13T20:55:14.327Z,99403.03
2023-01-13T20:57:42.612Z,99404.50
2023-01-13T21:00:11.759Z,99415.84
2023-01-13T21:02:41.991Z,99330.84
2023-01-13T21:05:12.155Z,99407.34
2023-01-13T21:07:40.598Z,99405.81
2023-01-13T21:10:11.759Z,99406.22
2023-01-13T21:12:57.176Z,99410.47
2023-01-13T21:15:27.686Z,99392.94
2023-01-13T21:18:15.441Z,99401.19
2023-01-13T21:20:44.765Z,99408.78
2023-01-13T21:23:12.766Z,99353.09
2023-01-13T21:25:41.235Z,99395.34
2023-01-13T21:28:11.633Z,99408.25
2023-01-13T21:30:40.037Z,99407.53
2023-01-13T21:33:08.904Z,99416.00
2023-01-13T21:35:40.332Z,99419.13
2023-01-13T21:38:11.807Z,99406.44
2023-01-13T21:40:39.783Z,99401.25
2023-01-13T21:43:25.171Z,99410.06
2023-01-13T21:46:10.589Z,99401.59
2023-01-13T21:48:38.550Z,99408.38
2023-01-13T21:51:06.844Z,99410.81
2023-01-13T21:53:36.101Z,99415.16
2023-01-13T21:56:04.061Z,99406.66
2023-01-13T21:58:31.973Z,99415.69
2023-01-13T22:01:03.930Z,99419.13
2023-01-13T22:03:51.919Z,99413.59
2023-01-13T22:06:19.869Z,99406.22
2023-01-13T22:08:49.164Z,99415.00
2023-01-13T22:11:17.382Z,99415.59
2023-01-13T22:14:01.725Z,99427.19
2023-01-13T22:16:29.671Z,99426.16
2023-01-13T22:18:57.618Z,99422.69
2023-01-13T22:21:25.552Z,99408.31
2023-01-13T22:23:55.325Z,99426.03
2023-01-13T22:26:23.322Z,99424.72
2023-01-13T22:28:51.248Z,99427.03
2023-01-13T22:31:21.362Z,99408.00
2023-01-13T22:33:49.393Z,99415.09
2023-01-13T22:36:17.369Z,99420.66
2023-01-13T22:38:45.417Z,99424.78
2023-01-13T22:41:14.762Z,99421.97
2023-01-13T22:43:42.657Z,99413.91
2023-01-13T22:46:12.209Z,99423.53
2023-01-13T22:48:40.859Z,99410.00
2023-01-13T22:51:10.413Z,99406.94
2023-01-13T22:53:38.665Z,99383.13
2023-01-13T22:56:08.106Z,99394.22
2023-01-13T22:58:37.365Z,99390.19
2023-01-13T23:01:10.750Z,99409.75
2023-01-13T23:03:38.791Z,99403.78
2023-01-13T23:06:08.016Z,99407.78
2023-01-13T23:08:37.631Z,99407.66
2023-01-13T23:11:08.418Z,99412.75
2023-01-13T23:13:39.681Z,99399.00
2023-01-13T23:16:11.511Z,99398.25
2023-01-13T23:18:42.777Z,99388.22
2023-01-13T23:21:14.533Z,99403.53
2023-01-13T23:23:43.359Z,99408.25
2023-01-13T23:26:12.679Z,99403.81
2023-01-13T23:28:43.984Z,99406.38
2023-01-13T23:31:14.399Z,99411.41
2023-01-13T23:33:45.517Z,99387.53
2023-01-13T23:36:18.030Z,99390.78
2023-01-13T23:38:46.647Z,99395.03
2023-01-13T23:41:17.615Z,99394.50
2023-01-13T23:43:51.336Z,99385.72
2023-01-13T23:46:20.263Z,99396.13
2023-01-13T23:48:48.700Z,99402.25
2023-01-13T23:51:17.265Z,99404.13
2023-01-13T23:53:47.200Z,99407.41
2023-01-13T23:56:17.538Z,99409.09
2023-01-13T23:58:47.421Z,99368.56
